Lithonia, GA (30038)

5:42 PM EDT on October 21, 2014 (GMT -0400)
Havenridge | Change Station
CLOSE
Current Station
Personal Weather Station
Location: Conyers, GA
Elevation: 879 ft
Nearby Weather Stations

Elev 879 ft 33.67 °N, 84.08 °W | Updated 6 minutes ago

Clear
Clear
71.6 °F
Feels Like 77 °F
N
0.0
Wind Variable Wind from NW

Today
High -- | Low -- °F
--% Chance of Precip.
Yesterday
High -- | Low -- °F
Precip. -- in
7:46 AM 6:55 PM
Waning Crescent, 4% visible
Pressure 29.94 in
Visibility 10.0 miles
Clouds Few 6000 ft
Heat Index 77 °F
Dew Point 51 °F
Humidity 49%
Rainfall 0.00 in
Snow Depth Not available.
UV 2 out of 12
Pollen 3.20 out of 12
Ozone Good
PM2.5 Good
Flu Activity Sporadic
METAR KATL 212052Z 30012KT 10SM FEW060 24/09 A2996 RMK AO2 SLP139 T02390094 55010

More Conditions Fewer Conditions

Pressure 29.94 in
Visibility 10.0 miles
Clouds Few 6000 ft
Heat Index 77 °F
Dew Point 51 °F
Humidity 49%
Rainfall 0.00 in
Snow Depth Not available.
UV 2 out of 12
Pollen 3.20 out of 12
Ozone Good
PM2.5 Good
Flu Activity Sporadic
METAR KATL 212052Z 30012KT 10SM FEW060 24/09 A2996 RMK AO2 SLP139 T02390094 55010

More Conditions Fewer Conditions

10-Day Weather Forecast

Almanac

Astronomy

Oct. 21, 2014 Rise Set
Actual Time 7:46 AM EDT 6:55 PM EDT
Civil Twilight 7:20 AM EDT 7:20 PM EDT
Nautical Twilight 6:51 AM EDT 7:50 PM EDT
Astronomical Twilight 6:22 AM EDT 8:18 PM EDT
Moon 5:35 AM EDT 5:44 PM EDT
Length of Visible Light 12h 00m
Length of Day
11h 09m
Tomorrow will be 1m 56s shorter.
Waning Crescent, 4% of the Moon is Illuminated
Today
Waning Crescent
Oct 23
New
Oct 30
First Quarter
Nov 6
Full
Nov 14
Last Quarter

Today's Extremes

State Highs State Lows

Community

WunderPhotos

Upload Photos

1,763,785 photos uploaded!

Nearby

Air Quality

  Air Quality AQ Index Pollutant
Yesterday Good
PM10
Yesterday Good
OZONE
Current Good
PM2.5
Current Good
OZONE
Tuesday Moderate
PM2.5
Tuesday Good
OZONE
Wednesday Good
OZONE
Wednesday Good
PM2.5

Snow Depth

Station Depth Elevation
No new snow has been reported.

Earthquake Activity

City Distance Mag. Time & Date
No recent earthquake activity has been reported nearby.
Minimum magnitude displayed is 2.5.

Coastal Water Temperatures

Place Temperature
No Stations Reporting

Nearby Weather Stations